CheckWX is a tool to help pilots better visualize weather data.  It is not intended as a substitute for an official pre-flight weather briefing.

13:20:18 UTC

KMSP METAR
Minneapolis-St Paul International / Wold-Chamberlain Airport
Minneapolis, Minnesota, USA
Current

27 mins ago

KMSP 211253Z 18008KT 9SM BKN013 OVC020 22/21 A2982 RMK AO2 SLP092 T02220206
Observed
Sep-21 @ 12:53 UTC
Wind
  • 180° at 8 KTS
Visibility
9 SM
Flight Rules
MVFR
Cloud Levels
  • Broken at 1,300' AGL
  • Overcast at 2,000' AGL
Temperature
22°C / 72°F
Dewpoint
21°C / 70°F
Humidity
94%
Altimeter
29.82" Hg
Pressure
1009.82 hPa
Previous

47 mins ago

KMSP 211233Z 18009KT 9SM OVC014 22/21 A2982 RMK AO2 T02220206
Observed
Sep-21 @ 12:33 UTC
Wind
  • 180° at 9 KTS
Visibility
9 SM
Flight Rules
MVFR
Cloud Levels
  • Overcast at 1,400' AGL
Temperature
22°C / 72°F
Dewpoint
21°C / 70°F
Humidity
94%
Altimeter
29.82" Hg
Pressure
1009.82 hPa
Previous

1 hour ago

KMSP 211153Z 15009KT 8SM SCT019 BKN023 OVC050 22/21 A2981 RMK AO2 RAB14E31 SLP090 P0001 60010 70010 T02170206 10239 20217 56013
Observed
Sep-21 @ 11:53 UTC
Wind
  • 150° at 9 KTS
Visibility
8 SM
Flight Rules
MVFR
Cloud Levels
  • Scattered at 1,900' AGL
  • Broken at 2,300' AGL
  • Overcast at 5,000' AGL
Temperature
22°C / 72°F
Dewpoint
21°C / 70°F
Humidity
94%
Altimeter
29.81" Hg
Pressure
1009.52 hPa
Current Rain
0.01"
24 Hour Rain
0.1"